createdAt,value
2022-09-29T00:00:10.691Z,24.60
2022-09-29T00:02:15.971Z,24.50
2022-09-29T00:04:28.417Z,24.60
2022-09-29T00:06:33.453Z,24.60
2022-09-29T00:08:38.248Z,24.60
2022-09-29T00:10:43.488Z,24.60
2022-09-29T00:12:55.232Z,24.60
2022-09-29T00:14:59.029Z,24.60
2022-09-29T00:17:03.693Z,24.50
2022-09-29T00:19:07.993Z,24.60
2022-09-29T00:21:13.405Z,24.70
2022-09-29T00:23:20.202Z,24.70
2022-09-29T00:25:28.886Z,24.70
2022-09-29T00:27:33.318Z,24.70
2022-09-29T00:29:42.467Z,24.80
2022-09-29T00:31:48.464Z,24.90
2022-09-29T00:33:52.412Z,24.80
2022-09-29T00:36:00.011Z,24.90
2022-09-29T00:38:04.679Z,24.90
2022-09-29T00:40:10.094Z,24.90
2022-09-29T00:42:14.308Z,24.90
2022-09-29T00:44:34.085Z,24.90
2022-09-29T00:46:59.114Z,25.00
2022-09-29T00:49:04.777Z,25.10
2022-09-29T00:51:09.848Z,25.10
2022-09-29T00:53:20.564Z,25.10
2022-09-29T00:55:32.849Z,25.10
2022-09-29T00:57:38.489Z,25.10
2022-09-29T00:59:51.304Z,25.20
2022-09-29T01:01:55.900Z,25.20
2022-09-29T01:04:11.667Z,25.20
2022-09-29T01:06:18.793Z,25.30
2022-09-29T01:08:26.802Z,25.30
2022-09-29T01:10:32.663Z,25.40
2022-09-29T01:12:38.074Z,25.40
2022-09-29T01:14:50.726Z,25.40
2022-09-29T01:16:58.556Z,25.40
2022-09-29T01:19:18.544Z,25.40
2022-09-29T01:21:50.387Z,25.40
2022-09-29T01:24:26.321Z,25.50
2022-09-29T01:26:37.075Z,25.60
2022-09-29T01:28:50.252Z,25.70
2022-09-29T01:31:12.577Z,25.80
2022-09-29T01:33:31.620Z,25.70
2022-09-29T01:36:04.774Z,25.70
2022-09-29T01:38:31.177Z,25.80
2022-09-29T01:40:43.680Z,25.80
2022-09-29T01:42:54.110Z,25.80
2022-09-29T01:45:14.038Z,25.90
2022-09-29T01:47:27.288Z,26.00
2022-09-29T01:49:46.910Z,26.10
2022-09-29T01:52:02.450Z,26.10
2022-09-29T01:54:25.215Z,26.10
2022-09-29T01:56:53.650Z,26.10
2022-09-29T01:59:06.673Z,26.20
2022-09-29T02:01:12.079Z,26.20
2022-09-29T02:03:20.481Z,26.10
2022-09-29T02:05:29.701Z,26.10
2022-09-29T02:07:41.639Z,26.10
2022-09-29T02:09:46.491Z,26.20
2022-09-29T02:11:51.005Z,26.20
2022-09-29T02:14:01.161Z,26.20
2022-09-29T02:16:05.829Z,26.30
2022-09-29T02:18:12.562Z,26.30
2022-09-29T02:20:19.718Z,26.40
2022-09-29T02:22:24.262Z,26.40
2022-09-29T02:24:28.359Z,26.50
2022-09-29T02:26:37.376Z,26.50
2022-09-29T02:28:41.461Z,26.40
2022-09-29T02:30:46.763Z,26.40
2022-09-29T02:32:50.725Z,26.40
2022-09-29T02:34:55.970Z,26.50
2022-09-29T02:37:13.080Z,26.50
2022-09-29T02:39:28.317Z,26.50
2022-09-29T02:41:43.043Z,26.50
2022-09-29T02:44:07.321Z,26.50
2022-09-29T02:46:23.769Z,26.50
2022-09-29T02:48:53.766Z,26.40
2022-09-29T02:51:08.568Z,26.40
2022-09-29T02:53:33.998Z,26.40
2022-09-29T02:56:12.555Z,26.50
2022-09-29T02:58:22.170Z,26.60
2022-09-29T03:00:26.165Z,26.70
2022-09-29T03:02:31.381Z,26.80
2022-09-29T03:04:36.431Z,26.80
2022-09-29T03:06:42.045Z,26.90
2022-09-29T03:08:48.133Z,26.90
2022-09-29T03:10:52.121Z,26.90
2022-09-29T03:12:56.203Z,26.80
2022-09-29T03:15:00.883Z,26.70
2022-09-29T03:17:05.559Z,26.60
2022-09-29T03:19:13.134Z,26.70
2022-09-29T03:21:17.891Z,26.70
2022-09-29T03:23:24.988Z,26.70
2022-09-29T03:25:29.454Z,26.80
2022-09-29T03:27:34.447Z,26.90
2022-09-29T03:29:38.845Z,27.00
2022-09-29T03:31:44.728Z,27.00
2022-09-29T03:33:48.733Z,27.10
2022-09-29T03:35:53.196Z,27.30
2022-09-29T03:38:01.356Z,27.30
2022-09-29T03:40:06.587Z,27.30
2022-09-29T03:42:11.245Z,27.50
2022-09-29T03:44:17.465Z,27.50
2022-09-29T03:46:22.715Z,27.50
2022-09-29T03:48:37.928Z,27.60
2022-09-29T03:50:46.775Z,27.70
2022-09-29T03:52:59.465Z,27.70
2022-09-29T03:55:06.554Z,27.60
2022-09-29T03:57:16.455Z,27.60
2022-09-29T03:59:25.850Z,27.50
2022-09-29T04:01:33.198Z,27.50
2022-09-29T04:03:40.111Z,27.40
2022-09-29T04:05:47.546Z,27.40
2022-09-29T04:08:00.679Z,27.40
2022-09-29T04:10:11.525Z,27.40
2022-09-29T04:12:28.707Z,27.30
2022-09-29T04:14:38.292Z,27.30
2022-09-29T04:16:45.619Z,27.30
2022-09-29T04:18:50.358Z,27.30
2022-09-29T04:21:13.971Z,27.30
2022-09-29T04:23:18.508Z,27.30
2022-09-29T04:25:22.855Z,27.20
2022-09-29T04:27:29.868Z,27.10
2022-09-29T04:29:36.224Z,27.10
2022-09-29T04:31:42.079Z,27.20
2022-09-29T04:33:48.731Z,27.30
2022-09-29T04:36:01.569Z,27.40
2022-09-29T04:38:13.185Z,27.40
2022-09-29T04:40:18.605Z,27.50
2022-09-29T04:42:23.374Z,27.50
2022-09-29T04:44:35.095Z,27.50
2022-09-29T04:46:55.853Z,27.60
2022-09-29T04:49:01.478Z,27.60
2022-09-29T04:51:06.717Z,27.60
2022-09-29T04:53:12.494Z,27.60
2022-09-29T04:55:18.987Z,27.70
2022-09-29T04:57:22.909Z,27.70
2022-09-29T04:59:26.877Z,27.60
2022-09-29T05:01:32.327Z,27.60
2022-09-29T05:03:36.819Z,27.60
2022-09-29T05:05:40.941Z,27.60
2022-09-29T05:07:46.779Z,27.60
2022-09-29T05:09:50.780Z,27.60
2022-09-29T05:11:55.720Z,27.60
2022-09-29T05:14:00.130Z,27.70
2022-09-29T05:16:04.926Z,27.70
2022-09-29T05:18:17.693Z,27.70
2022-09-29T05:20:23.236Z,27.80
2022-09-29T05:22:32.499Z,27.80
2022-09-29T05:24:46.909Z,27.80
2022-09-29T05:26:58.343Z,27.80
2022-09-29T05:29:05.327Z,27.80
2022-09-29T05:31:11.313Z,27.80
2022-09-29T05:33:15.235Z,27.80
2022-09-29T05:35:19.872Z,27.60
2022-09-29T05:37:23.564Z,27.40
2022-09-29T05:39:32.911Z,27.30
2022-09-29T05:41:38.801Z,27.20
2022-09-29T05:43:46.419Z,27.20
2022-09-29T05:45:50.324Z,27.20
2022-09-29T05:47:55.513Z,27.30
2022-09-29T05:50:00.546Z,27.40
2022-09-29T05:52:04.860Z,27.50
2022-09-29T05:54:09.259Z,27.50
2022-09-29T05:56:15.510Z,27.30
2022-09-29T05:58:21.669Z,27.30
2022-09-29T06:00:26.232Z,27.30
2022-09-29T06:02:35.163Z,27.30
2022-09-29T06:04:40.946Z,27.30
2022-09-29T06:06:45.165Z,27.30
2022-09-29T06:08:49.460Z,27.40
2022-09-29T06:10:53.455Z,27.30
2022-09-29T06:12:58.000Z,27.30
2022-09-29T06:15:13.996Z,27.30
2022-09-29T06:17:20.574Z,27.30
2022-09-29T06:19:24.545Z,27.30
2022-09-29T06:21:29.125Z,27.20
2022-09-29T06:23:34.433Z,27.20
2022-09-29T06:25:39.430Z,27.20
2022-09-29T06:27:43.752Z,27.20
2022-09-29T06:29:47.697Z,27.20
2022-09-29T06:31:52.502Z,27.30
2022-09-29T06:34:00.490Z,27.30
2022-09-29T06:36:22.015Z,27.40
2022-09-29T06:38:27.077Z,27.30
2022-09-29T06:40:31.786Z,27.30
2022-09-29T06:42:36.524Z,27.30
2022-09-29T06:44:56.792Z,27.30
2022-09-29T06:47:02.347Z,27.30
2022-09-29T06:49:08.483Z,27.30
2022-09-29T06:51:16.275Z,27.40
2022-09-29T06:53:36.278Z,27.40
2022-09-29T06:55:44.325Z,27.40
2022-09-29T06:57:51.591Z,27.50
2022-09-29T06:59:55.539Z,27.40
2022-09-29T07:02:04.277Z,27.30
2022-09-29T07:04:08.479Z,27.30
2022-09-29T07:06:19.860Z,27.20
2022-09-29T07:08:29.093Z,27.10
2022-09-29T07:10:33.518Z,27.10
2022-09-29T07:12:41.451Z,27.20
2022-09-29T07:14:49.764Z,27.30
2022-09-29T07:16:54.060Z,27.30
2022-09-29T07:19:01.696Z,27.30
2022-09-29T07:21:06.729Z,27.40
2022-09-29T07:23:11.339Z,27.50
2022-09-29T07:25:50.080Z,27.60
2022-09-29T07:27:49.705Z,27.60
2022-09-29T07:30:03.352Z,27.60
2022-09-29T07:32:23.029Z,27.60
2022-09-29T07:34:34.315Z,27.60
2022-09-29T07:36:45.640Z,27.60
2022-09-29T07:38:52.499Z,27.60
2022-09-29T07:41:11.336Z,27.70
2022-09-29T07:43:22.513Z,27.60
2022-09-29T07:45:27.527Z,27.70
2022-09-29T07:47:33.735Z,27.60
2022-09-29T07:49:38.552Z,27.50
2022-09-29T07:51:42.693Z,27.40
2022-09-29T07:53:47.467Z,27.40
2022-09-29T07:55:51.867Z,27.40
2022-09-29T07:57:58.420Z,27.40
2022-09-29T08:00:05.774Z,27.50
2022-09-29T08:02:19.487Z,27.60
2022-09-29T08:04:23.764Z,27.60
2022-09-29T08:06:28.162Z,27.50
2022-09-29T08:08:33.100Z,27.60
2022-09-29T08:10:48.611Z,27.60
2022-09-29T08:12:57.506Z,27.60
2022-09-29T08:15:07.189Z,27.60
2022-09-29T08:17:12.221Z,27.60
2022-09-29T08:19:18.822Z,27.60
2022-09-29T08:21:22.702Z,27.40
2022-09-29T08:23:27.719Z,27.40
2022-09-29T08:25:32.857Z,27.30
2022-09-29T08:27:48.462Z,27.40
2022-09-29T08:29:58.581Z,27.50
2022-09-29T08:32:03.568Z,27.50
2022-09-29T08:34:11.878Z,27.50
2022-09-29T08:36:16.155Z,27.50
2022-09-29T08:38:21.534Z,27.30
2022-09-29T08:40:28.895Z,27.20
2022-09-29T08:42:53.941Z,27.20
2022-09-29T08:45:15.301Z,27.20
2022-09-29T08:47:45.206Z,27.10
2022-09-29T08:49:55.577Z,27.10
2022-09-29T08:52:12.001Z,27.10
2022-09-29T08:54:36.100Z,27.10
2022-09-29T08:56:42.538Z,27.10
2022-09-29T08:58:46.810Z,27.10
2022-09-29T09:01:01.333Z,27.00
2022-09-29T09:03:18.116Z,27.00
2022-09-29T09:05:36.215Z,27.00
2022-09-29T09:07:53.129Z,27.00
2022-09-29T09:10:09.328Z,26.90
2022-09-29T09:12:33.218Z,26.90
2022-09-29T09:14:43.455Z,26.90
2022-09-29T09:17:01.088Z,26.90
2022-09-29T09:19:13.286Z,26.90
2022-09-29T09:21:21.964Z,26.80
2022-09-29T09:23:28.194Z,26.70
2022-09-29T09:25:33.155Z,26.80
2022-09-29T09:27:38.639Z,26.80
2022-09-29T09:29:44.095Z,26.80
2022-09-29T09:32:02.892Z,26.70
2022-09-29T09:34:09.044Z,26.60
2022-09-29T09:36:20.240Z,26.60
2022-09-29T09:38:30.005Z,26.70
2022-09-29T09:40:38.035Z,26.60
2022-09-29T09:42:43.271Z,26.70
2022-09-29T09:44:51.891Z,26.60
2022-09-29T09:47:15.682Z,26.60
2022-09-29T09:49:29.060Z,26.60
2022-09-29T09:51:51.363Z,26.70
2022-09-29T09:53:55.931Z,26.70
2022-09-29T09:56:04.641Z,26.70
2022-09-29T09:58:21.499Z,26.70
2022-09-29T10:00:27.165Z,26.80
2022-09-29T10:02:32.218Z,26.80
2022-09-29T10:04:36.545Z,26.80
2022-09-29T10:06:40.707Z,26.80
2022-09-29T10:08:44.605Z,26.70
2022-09-29T10:10:58.234Z,26.70
2022-09-29T10:13:11.228Z,26.70
2022-09-29T10:15:26.691Z,26.70
2022-09-29T10:17:39.182Z,26.60
2022-09-29T10:19:58.737Z,26.70
2022-09-29T10:22:16.714Z,26.70
2022-09-29T10:24:28.802Z,26.70
2022-09-29T10:26:41.313Z,26.60
2022-09-29T10:28:50.311Z,26.60
2022-09-29T10:30:55.816Z,26.60
2022-09-29T10:33:02.987Z,26.50
2022-09-29T10:35:11.202Z,26.60
2022-09-29T10:37:37.201Z,26.60
2022-09-29T10:39:43.906Z,26.60
2022-09-29T10:41:55.893Z,26.40
2022-09-29T10:44:00.046Z,26.50
2022-09-29T10:46:04.324Z,26.60
2022-09-29T10:48:11.219Z,26.50
2022-09-29T10:50:17.852Z,26.50
2022-09-29T10:52:28.575Z,26.60
2022-09-29T10:54:38.114Z,26.50
2022-09-29T10:56:48.133Z,26.50
2022-09-29T10:59:01.859Z,26.50
2022-09-29T11:01:13.994Z,26.40
2022-09-29T11:03:20.631Z,26.40
2022-09-29T11:05:28.190Z,26.40
2022-09-29T11:07:32.749Z,26.40
2022-09-29T11:09:39.702Z,26.40
2022-09-29T11:12:07.452Z,26.40
2022-09-29T11:14:25.631Z,26.40
2022-09-29T11:16:34.505Z,26.40
2022-09-29T11:18:38.839Z,26.30
2022-09-29T11:20:42.827Z,26.40
2022-09-29T11:23:06.623Z,26.40
2022-09-29T11:25:31.525Z,26.40
2022-09-29T11:27:55.326Z,26.40
2022-09-29T11:30:04.839Z,26.40
2022-09-29T11:32:13.953Z,26.40
2022-09-29T11:34:31.648Z,26.40
2022-09-29T11:36:55.804Z,26.40
2022-09-29T11:39:10.024Z,26.40
2022-09-29T11:41:32.473Z,26.40
2022-09-29T11:43:46.058Z,26.40
2022-09-29T11:46:09.528Z,26.40
2022-09-29T11:48:33.371Z,26.40
2022-09-29T11:50:47.722Z,26.30
2022-09-29T11:52:55.338Z,26.40
2022-09-29T11:55:12.916Z,26.40
2022-09-29T11:57:44.873Z,26.40
2022-09-29T12:00:05.375Z,26.40
2022-09-29T12:02:23.034Z,26.40
2022-09-29T12:04:40.604Z,26.40
2022-09-29T12:06:54.283Z,26.40
2022-09-29T12:09:18.421Z,26.40
2022-09-29T12:11:50.804Z,26.40
2022-09-29T12:14:18.614Z,26.40
2022-09-29T12:16:24.270Z,26.30
2022-09-29T12:18:37.948Z,26.30
2022-09-29T12:20:47.728Z,26.30
2022-09-29T12:22:52.682Z,26.40
2022-09-29T12:24:58.277Z,26.30
2022-09-29T12:27:02.363Z,26.40
2022-09-29T12:29:09.228Z,26.20
2022-09-29T12:31:47.444Z,26.20
2022-09-29T12:34:06.807Z,26.20
2022-09-29T12:36:37.392Z,26.20
2022-09-29T12:38:44.915Z,26.20
2022-09-29T12:41:01.199Z,26.20
2022-09-29T12:43:16.887Z,26.20
2022-09-29T12:45:25.418Z,26.20
2022-09-29T12:47:49.228Z,26.20
2022-09-29T12:49:58.483Z,26.20
2022-09-29T12:52:02.964Z,26.20
2022-09-29T12:54:19.362Z,26.30
2022-09-29T12:56:27.824Z,26.20
2022-09-29T12:58:54.179Z,26.20
2022-09-29T13:01:01.094Z,26.30
2022-09-29T13:03:27.962Z,26.30
2022-09-29T13:05:46.765Z,26.30
2022-09-29T13:08:17.084Z,26.20
2022-09-29T13:10:35.336Z,26.20
2022-09-29T13:12:53.718Z,26.30
2022-09-29T13:15:17.212Z,26.20
2022-09-29T13:17:33.502Z,26.20
2022-09-29T13:19:59.089Z,26.20
2022-09-29T13:22:16.012Z,26.30
2022-09-29T13:24:43.419Z,26.30
2022-09-29T13:27:01.040Z,26.30
2022-09-29T13:29:06.298Z,26.30
2022-09-29T13:31:11.820Z,26.20
2022-09-29T13:33:23.078Z,26.20
2022-09-29T13:35:28.580Z,26.20
2022-09-29T13:37:38.095Z,26.30
2022-09-29T13:39:45.732Z,26.30
2022-09-29T13:41:49.618Z,26.30
2022-09-29T13:44:13.353Z,26.30
2022-09-29T13:46:27.817Z,26.30
2022-09-29T13:48:35.983Z,26.30
2022-09-29T13:51:01.786Z,26.30
2022-09-29T13:53:21.880Z,26.20
2022-09-29T13:55:38.123Z,26.20
2022-09-29T13:57:51.713Z,26.30
2022-09-29T14:00:14.211Z,26.30
2022-09-29T14:02:30.741Z,26.20
2022-09-29T14:04:37.926Z,26.20
2022-09-29T14:06:48.747Z,26.20
2022-09-29T14:09:16.893Z,26.20
2022-09-29T14:11:40.768Z,26.20
2022-09-29T14:13:47.998Z,26.10
2022-09-29T14:16:04.487Z,26.10
2022-09-29T14:18:11.914Z,26.00
2022-09-29T14:20:23.638Z,26.10
2022-09-29T14:22:43.465Z,26.10
2022-09-29T14:24:51.406Z,26.10
2022-09-29T14:26:55.545Z,26.10
2022-09-29T14:29:00.657Z,26.10
2022-09-29T14:31:05.304Z,26.10
2022-09-29T14:33:30.542Z,26.10
2022-09-29T14:35:38.437Z,26.10
2022-09-29T14:37:42.343Z,26.10
2022-09-29T14:40:07.049Z,26.10
2022-09-29T14:42:17.235Z,26.10
2022-09-29T14:44:23.192Z,26.10
2022-09-29T14:46:59.101Z,26.20
2022-09-29T14:49:28.020Z,26.20
2022-09-29T14:51:48.463Z,26.10
2022-09-29T14:53:59.234Z,26.20
2022-09-29T14:56:14.845Z,26.20
2022-09-29T14:58:31.557Z,26.10
2022-09-29T15:00:45.608Z,26.20
2022-09-29T15:02:59.972Z,26.20
2022-09-29T15:05:31.095Z,26.20
2022-09-29T15:07:42.061Z,26.20
2022-09-29T15:09:55.784Z,26.20
2022-09-29T15:12:03.834Z,26.20
2022-09-29T15:14:20.814Z,26.20
2022-09-29T15:16:36.868Z,26.20
2022-09-29T15:18:56.457Z,26.20
2022-09-29T15:21:13.696Z,26.20
2022-09-29T15:23:29.513Z,26.20
2022-09-29T15:25:35.431Z,26.10
2022-09-29T15:27:40.839Z,26.20
2022-09-29T15:29:47.019Z,26.10
2022-09-29T15:31:50.996Z,26.20
2022-09-29T15:33:55.211Z,26.10
2022-09-29T15:36:00.387Z,26.10
2022-09-29T15:38:24.366Z,26.10
2022-09-29T15:40:28.587Z,26.20
2022-09-29T15:42:33.040Z,26.20
2022-09-29T15:44:36.884Z,26.20
2022-09-29T15:46:42.372Z,26.20
2022-09-29T15:49:06.030Z,26.20
2022-09-29T15:51:17.961Z,26.10
2022-09-29T15:53:21.891Z,26.20
2022-09-29T15:55:26.448Z,26.10
2022-09-29T15:57:51.082Z,26.10
2022-09-29T15:59:55.850Z,26.10
2022-09-29T16:02:04.101Z,26.10
2022-09-29T16:06:32.683Z,26.10
2022-09-29T16:08:38.564Z,26.10
2022-09-29T16:10:45.337Z,26.20
2022-09-29T16:12:57.575Z,26.10
2022-09-29T16:15:03.030Z,26.10
2022-09-29T16:17:10.196Z,26.10
2022-09-29T16:19:21.624Z,26.00
2022-09-29T16:21:25.393Z,26.00
2022-09-29T16:23:31.059Z,26.00
2022-09-29T16:25:35.561Z,26.10
2022-09-29T16:27:48.582Z,26.00
2022-09-29T16:29:54.596Z,26.00
2022-09-29T16:31:59.321Z,26.10
2022-09-29T16:34:03.274Z,26.00
2022-09-29T16:36:10.658Z,26.00
2022-09-29T16:38:35.624Z,26.00
2022-09-29T16:40:41.519Z,26.00
2022-09-29T16:42:50.194Z,26.00
2022-09-29T16:44:55.039Z,26.00
2022-09-29T16:47:06.050Z,26.00
2022-09-29T16:49:15.184Z,26.00
2022-09-29T16:53:44.560Z,26.00
2022-09-29T16:55:56.855Z,26.00
2022-09-29T16:58:19.760Z,26.00
2022-09-29T17:00:23.908Z,26.10
2022-09-29T17:02:31.254Z,26.10
2022-09-29T17:04:35.096Z,26.10
2022-09-29T17:06:39.650Z,26.00
2022-09-29T17:08:43.465Z,26.00
2022-09-29T17:10:47.563Z,26.00
2022-09-29T17:12:51.733Z,26.10
2022-09-29T17:14:56.366Z,26.10
2022-09-29T17:17:00.250Z,26.10
2022-09-29T17:19:05.382Z,26.10
2022-09-29T17:21:10.582Z,26.10
2022-09-29T17:23:14.759Z,26.10
2022-09-29T17:25:19.220Z,26.10
2022-09-29T17:27:35.755Z,26.10
2022-09-29T17:29:41.047Z,26.10
2022-09-29T17:31:44.998Z,26.10
2022-09-29T17:33:48.949Z,26.10
2022-09-29T17:35:55.834Z,26.00
2022-09-29T17:38:00.261Z,26.00
2022-09-29T17:40:04.693Z,26.00
2022-09-29T17:42:09.875Z,26.00
2022-09-29T17:44:14.108Z,26.00
2022-09-29T17:46:18.509Z,26.00
2022-09-29T17:48:22.338Z,26.00
2022-09-29T17:50:31.230Z,26.00
2022-09-29T17:52:39.087Z,26.00
2022-09-29T17:54:43.362Z,26.00
2022-09-29T17:56:49.530Z,26.00
2022-09-29T17:58:54.001Z,26.00
2022-09-29T18:00:59.660Z,26.00
2022-09-29T18:03:13.575Z,26.00
2022-09-29T18:05:24.724Z,26.00
2022-09-29T18:07:38.505Z,26.00
2022-09-29T18:09:48.166Z,26.00
2022-09-29T18:11:52.756Z,26.00
2022-09-29T18:13:57.285Z,26.00
2022-09-29T18:16:03.299Z,26.00
2022-09-29T18:18:08.649Z,26.00
2022-09-29T18:20:16.756Z,26.00
2022-09-29T18:22:25.661Z,25.90
2022-09-29T18:24:38.180Z,25.90
2022-09-29T18:26:42.914Z,26.00
2022-09-29T18:28:54.640Z,26.00
2022-09-29T18:31:08.875Z,26.00
2022-09-29T18:33:17.195Z,26.00
2022-09-29T18:35:22.296Z,25.90
2022-09-29T18:37:26.517Z,25.90
2022-09-29T18:39:30.327Z,25.90
2022-09-29T18:41:34.646Z,25.90
2022-09-29T18:43:39.323Z,25.90
2022-09-29T18:45:44.485Z,25.90
2022-09-29T18:47:49.284Z,25.90
2022-09-29T18:49:54.027Z,25.90
2022-09-29T18:51:58.186Z,25.90
2022-09-29T18:54:05.050Z,25.90
2022-09-29T18:56:11.080Z,25.90
2022-09-29T18:58:18.722Z,25.80
2022-09-29T19:00:23.811Z,25.90
2022-09-29T19:02:28.293Z,25.90
2022-09-29T19:04:32.841Z,25.90
2022-09-29T19:06:37.218Z,25.80
2022-09-29T19:08:43.832Z,25.80
2022-09-29T19:10:54.149Z,25.90
2022-09-29T19:13:00.010Z,25.90
2022-09-29T19:15:04.391Z,25.90
2022-09-29T19:17:09.029Z,25.90
2022-09-29T19:19:13.163Z,25.90
2022-09-29T19:21:17.589Z,25.90
2022-09-29T19:23:21.839Z,25.90
2022-09-29T19:25:30.002Z,25.90
2022-09-29T19:27:39.900Z,25.90
2022-09-29T19:29:44.100Z,25.90
2022-09-29T19:31:48.026Z,25.90
2022-09-29T19:33:52.243Z,25.90
2022-09-29T19:35:56.182Z,25.90
2022-09-29T19:38:00.602Z,25.90
2022-09-29T19:40:05.787Z,25.90
2022-09-29T19:42:09.940Z,25.90
2022-09-29T19:44:14.198Z,25.90
2022-09-29T19:46:19.206Z,25.90
2022-09-29T19:48:23.440Z,25.90
2022-09-29T19:50:42.176Z,25.90
2022-09-29T19:52:46.616Z,25.90
2022-09-29T19:54:51.722Z,25.90
2022-09-29T19:56:58.062Z,25.80
2022-09-29T19:59:02.067Z,25.80
2022-09-29T20:01:09.280Z,25.80
2022-09-29T20:03:13.282Z,25.80
2022-09-29T20:05:17.489Z,25.80
2022-09-29T20:07:21.323Z,25.80
2022-09-29T20:09:25.954Z,25.80
2022-09-29T20:11:31.200Z,25.80
2022-09-29T20:13:35.423Z,25.80
2022-09-29T20:15:42.004Z,25.80
2022-09-29T20:17:50.189Z,25.80
2022-09-29T20:19:57.645Z,25.80
2022-09-29T20:22:02.529Z,25.80
2022-09-29T20:24:11.773Z,25.80
2022-09-29T20:26:16.947Z,25.80
2022-09-29T20:28:27.206Z,25.80
2022-09-29T20:30:32.155Z,25.80
2022-09-29T20:32:46.424Z,25.80
2022-09-29T20:34:51.996Z,25.80
2022-09-29T20:36:59.501Z,25.80
2022-09-29T20:39:05.281Z,25.80
2022-09-29T20:41:09.682Z,25.80
2022-09-29T20:43:16.495Z,25.80
2022-09-29T20:45:24.736Z,25.80
2022-09-29T20:47:37.312Z,25.80
2022-09-29T20:49:48.466Z,25.80
2022-09-29T20:51:53.342Z,25.80
2022-09-29T20:53:59.767Z,25.80
2022-09-29T20:56:10.548Z,25.80
2022-09-29T20:58:17.456Z,25.70
2022-09-29T21:00:22.916Z,25.80
2022-09-29T21:02:32.842Z,25.80
2022-09-29T21:04:38.462Z,25.80
2022-09-29T21:06:47.117Z,25.80
2022-09-29T21:08:54.173Z,25.80
2022-09-29T21:11:12.585Z,25.80
2022-09-29T21:13:25.676Z,25.70
2022-09-29T21:15:38.548Z,25.80
2022-09-29T21:17:50.028Z,25.80
2022-09-29T21:19:57.594Z,25.80
2022-09-29T21:22:04.638Z,25.80
2022-09-29T21:24:12.282Z,25.80
2022-09-29T21:26:20.956Z,25.80
2022-09-29T21:28:33.278Z,25.80
2022-09-29T21:30:49.987Z,25.80
2022-09-29T21:33:14.229Z,25.80
2022-09-29T21:35:22.615Z,25.80
2022-09-29T21:37:26.870Z,25.70
2022-09-29T21:39:35.202Z,25.70
2022-09-29T21:41:47.160Z,25.70
2022-09-29T21:43:57.108Z,25.70
2022-09-29T21:46:11.255Z,25.60
2022-09-29T21:48:35.732Z,25.70
2022-09-29T21:50:44.088Z,25.70
2022-09-29T21:52:50.789Z,25.70
2022-09-29T21:55:00.542Z,25.70
2022-09-29T21:57:07.855Z,25.70
2022-09-29T21:59:12.877Z,25.70
2022-09-29T22:01:28.646Z,25.70
2022-09-29T22:03:36.360Z,25.70
2022-09-29T22:05:43.245Z,25.70
2022-09-29T22:07:48.623Z,25.70
2022-09-29T22:09:53.928Z,25.70
2022-09-29T22:12:00.704Z,25.70
2022-09-29T22:14:05.676Z,25.70
2022-09-29T22:16:16.120Z,25.70
2022-09-29T22:18:26.893Z,25.70
2022-09-29T22:20:38.008Z,25.70
2022-09-29T22:22:45.181Z,25.70
2022-09-29T22:24:50.491Z,25.70
2022-09-29T22:26:55.416Z,25.70
2022-09-29T22:29:02.652Z,25.70
2022-09-29T22:31:10.363Z,25.70
2022-09-29T22:33:20.425Z,25.70
2022-09-29T22:35:27.189Z,25.70
2022-09-29T22:37:41.272Z,25.70
2022-09-29T22:39:47.637Z,25.70
2022-09-29T22:41:54.511Z,25.70
2022-09-29T22:44:00.284Z,25.70
2022-09-29T22:46:04.493Z,25.70
2022-09-29T22:48:09.763Z,25.70
2022-09-29T22:50:33.284Z,25.70
2022-09-29T22:52:47.688Z,25.60
2022-09-29T22:54:55.260Z,25.60
2022-09-29T22:57:00.354Z,25.70
2022-09-29T22:59:05.457Z,25.70
2022-09-29T23:01:11.980Z,25.70
2022-09-29T23:03:26.496Z,25.70
2022-09-29T23:05:40.582Z,25.70
2022-09-29T23:07:47.093Z,25.70
2022-09-29T23:09:53.158Z,25.70
2022-09-29T23:12:00.275Z,25.70
2022-09-29T23:14:16.569Z,25.70
2022-09-29T23:16:23.055Z,25.70
2022-09-29T23:18:30.071Z,25.70
2022-09-29T23:20:39.557Z,25.70
2022-09-29T23:22:53.031Z,25.80
2022-09-29T23:24:59.138Z,25.70
2022-09-29T23:27:23.008Z,25.70
2022-09-29T23:29:29.038Z,25.70
2022-09-29T23:31:36.241Z,25.70
2022-09-29T23:33:54.206Z,25.70
2022-09-29T23:36:10.510Z,25.70
2022-09-29T23:38:27.405Z,25.70
2022-09-29T23:40:32.942Z,25.70
2022-09-29T23:42:39.909Z,25.70
2022-09-29T23:44:47.861Z,25.70
2022-09-29T23:47:00.562Z,25.80
2022-09-29T23:49:14.687Z,25.80
2022-09-29T23:51:22.024Z,25.80
2022-09-29T23:53:28.386Z,25.70
2022-09-29T23:55:37.455Z,25.70
2022-09-29T23:57:45.813Z,25.80
2022-09-29T23:59:54.115Z,25.80
